createdAt,value
2022-08-29T00:00:32.317Z,15.90
2022-08-29T00:03:01.013Z,15.90
2022-08-29T00:05:32.353Z,15.90
2022-08-29T00:08:00.194Z,15.90
2022-08-29T00:10:28.169Z,15.80
2022-08-29T00:12:55.161Z,15.80
2022-08-29T00:15:25.869Z,15.80
2022-08-29T00:17:52.485Z,15.80
2022-08-29T00:20:30.202Z,15.80
2022-08-29T00:23:02.357Z,15.80
2022-08-29T00:25:29.103Z,15.80
2022-08-29T00:27:55.691Z,15.70
2022-08-29T00:30:23.553Z,15.60
2022-08-29T00:32:51.035Z,15.60
2022-08-29T00:35:24.202Z,15.50
2022-08-29T00:37:50.955Z,15.60
2022-08-29T00:40:22.991Z,15.50
2022-08-29T00:42:49.674Z,15.50
2022-08-29T00:45:17.073Z,15.50
2022-08-29T00:47:58.730Z,15.40
2022-08-29T00:50:31.292Z,15.40
2022-08-29T00:52:59.595Z,15.40
2022-08-29T00:55:30.822Z,15.50
2022-08-29T00:58:02.535Z,15.50
2022-08-29T01:00:29.303Z,15.50
2022-08-29T01:02:55.921Z,15.50
2022-08-29T01:05:25.147Z,15.40
2022-08-29T01:07:52.144Z,15.30
2022-08-29T01:10:20.906Z,15.40
2022-08-29T01:12:47.558Z,15.30
2022-08-29T01:15:14.183Z,15.30
2022-08-29T01:17:46.648Z,15.30
2022-08-29T01:20:38.370Z,15.40
2022-08-29T01:23:32.443Z,15.30
2022-08-29T01:26:01.062Z,15.30
2022-08-29T01:28:37.911Z,15.20
2022-08-29T01:31:08.980Z,15.20
2022-08-29T01:33:51.577Z,15.10
2022-08-29T01:36:25.803Z,15.10
2022-08-29T01:38:52.813Z,15.10
2022-08-29T01:41:20.925Z,15.10
2022-08-29T01:43:50.841Z,15.10
2022-08-29T01:46:20.522Z,15.00
2022-08-29T01:48:47.224Z,15.00
2022-08-29T01:51:14.717Z,15.10
2022-08-29T01:53:42.082Z,15.10
2022-08-29T01:56:17.655Z,15.10
2022-08-29T01:58:45.375Z,15.10
2022-08-29T02:01:15.100Z,15.10
2022-08-29T02:03:41.775Z,15.00
2022-08-29T02:06:08.655Z,15.10
2022-08-29T02:08:36.133Z,15.00
2022-08-29T02:11:03.227Z,15.00
2022-08-29T02:13:29.850Z,15.00
2022-08-29T02:15:56.483Z,14.90
2022-08-29T02:18:23.116Z,14.90
2022-08-29T02:20:49.713Z,14.90
2022-08-29T02:23:30.092Z,14.90
2022-08-29T02:25:57.659Z,14.90
2022-08-29T02:28:24.254Z,14.80
2022-08-29T02:30:56.768Z,14.80
2022-08-29T02:33:24.622Z,14.70
2022-08-29T02:35:51.791Z,14.60
2022-08-29T02:38:18.911Z,14.70
2022-08-29T02:40:46.826Z,14.70
2022-08-29T02:43:13.534Z,14.70
2022-08-29T02:45:42.231Z,14.70
2022-08-29T02:48:09.676Z,14.80
2022-08-29T02:50:36.299Z,14.70
2022-08-29T02:53:02.898Z,14.70
2022-08-29T02:55:29.510Z,14.70
2022-08-29T02:57:56.161Z,14.70
2022-08-29T03:00:25.040Z,14.60
2022-08-29T03:02:52.618Z,14.60
2022-08-29T03:05:21.449Z,14.60
2022-08-29T03:07:50.915Z,14.60
2022-08-29T03:10:18.299Z,14.50
2022-08-29T03:12:44.882Z,14.40
2022-08-29T03:15:12.203Z,14.40
2022-08-29T03:17:39.250Z,14.50
2022-08-29T03:20:07.698Z,14.60
2022-08-29T03:22:34.594Z,14.50
2022-08-29T03:25:02.358Z,14.60
2022-08-29T03:27:30.918Z,14.50
2022-08-29T03:29:57.793Z,14.50
2022-08-29T03:32:25.570Z,14.50
2022-08-29T03:34:52.841Z,14.50
2022-08-29T03:37:19.583Z,14.50
2022-08-29T03:39:46.555Z,14.50
2022-08-29T03:42:13.396Z,14.50
2022-08-29T03:44:41.296Z,14.50
2022-08-29T03:47:08.445Z,14.60
2022-08-29T03:49:35.583Z,14.50
2022-08-29T03:52:02.529Z,14.50
2022-08-29T03:54:29.284Z,14.60
2022-08-29T03:56:55.975Z,14.50
2022-08-29T03:59:22.997Z,14.50
2022-08-29T04:01:50.228Z,14.40
2022-08-29T04:04:18.966Z,14.40
2022-08-29T04:06:45.551Z,14.40
2022-08-29T04:09:12.150Z,14.40
2022-08-29T04:11:38.729Z,14.40
2022-08-29T04:14:05.334Z,14.30
2022-08-29T04:16:31.946Z,14.30
2022-08-29T04:18:59.451Z,14.30
2022-08-29T04:21:26.225Z,14.30
2022-08-29T04:23:53.993Z,14.30
2022-08-29T04:26:40.697Z,14.30
2022-08-29T04:29:09.127Z,14.20
2022-08-29T04:31:37.031Z,14.10
2022-08-29T04:34:05.327Z,14.10
2022-08-29T04:36:34.345Z,14.10
2022-08-29T04:39:01.373Z,14.10
2022-08-29T04:41:28.141Z,14.10
2022-08-29T04:43:54.814Z,14.10
2022-08-29T04:46:24.407Z,14.20
2022-08-29T04:48:52.722Z,14.20
2022-08-29T04:51:20.021Z,14.10
2022-08-29T04:53:46.605Z,14.10
2022-08-29T04:56:13.221Z,14.10
2022-08-29T04:58:42.450Z,14.20
2022-08-29T05:01:15.760Z,14.10
2022-08-29T05:03:42.723Z,14.10
2022-08-29T05:06:13.534Z,14.10
2022-08-29T05:08:41.691Z,14.00
2022-08-29T05:11:13.069Z,14.00
2022-08-29T05:13:39.693Z,14.10
2022-08-29T05:16:11.838Z,14.10
2022-08-29T05:18:39.239Z,14.20
2022-08-29T05:21:06.363Z,14.20
2022-08-29T05:23:33.386Z,14.30
2022-08-29T05:26:02.330Z,14.30
2022-08-29T05:28:30.989Z,14.40
2022-08-29T05:30:58.958Z,14.40
2022-08-29T05:33:25.969Z,14.50
2022-08-29T05:35:52.756Z,14.50
2022-08-29T05:38:19.699Z,14.50
2022-08-29T05:40:46.285Z,14.50
2022-08-29T05:43:12.874Z,14.50
2022-08-29T05:45:39.777Z,14.50
2022-08-29T05:48:08.603Z,14.50
2022-08-29T05:50:42.705Z,14.50
2022-08-29T05:53:10.655Z,14.40
2022-08-29T05:55:40.509Z,14.50
2022-08-29T05:58:07.243Z,14.50
2022-08-29T06:00:33.937Z,14.60
2022-08-29T06:03:01.396Z,14.70
2022-08-29T06:05:28.226Z,14.80
2022-08-29T06:07:54.818Z,14.80
2022-08-29T06:10:21.513Z,14.80
2022-08-29T06:12:48.115Z,14.90
2022-08-29T06:15:15.019Z,15.00
2022-08-29T06:17:41.612Z,15.10
2022-08-29T06:20:09.083Z,15.10
2022-08-29T06:22:40.136Z,15.10
2022-08-29T06:25:27.970Z,15.20
2022-08-29T06:27:54.885Z,15.20
2022-08-29T06:30:21.568Z,15.20
2022-08-29T06:32:48.428Z,15.20
2022-08-29T06:35:15.207Z,15.20
2022-08-29T06:37:42.307Z,15.30
2022-08-29T06:40:10.625Z,15.50
2022-08-29T06:42:37.303Z,15.40
2022-08-29T06:45:05.754Z,15.50
2022-08-29T06:47:32.374Z,15.50
2022-08-29T06:49:59.046Z,15.50
2022-08-29T06:52:25.662Z,15.70
2022-08-29T06:54:52.811Z,15.80
2022-08-29T06:57:20.078Z,15.90
2022-08-29T06:59:46.680Z,15.90
2022-08-29T07:02:13.319Z,16.10
2022-08-29T07:04:40.005Z,16.20
2022-08-29T07:07:07.246Z,16.20
2022-08-29T07:09:33.938Z,16.30
2022-08-29T07:12:00.986Z,16.40
2022-08-29T07:14:27.742Z,16.50
2022-08-29T07:16:54.355Z,16.50
2022-08-29T07:19:20.946Z,16.70
2022-08-29T07:21:47.608Z,16.90
2022-08-29T07:24:14.210Z,16.90
2022-08-29T07:26:42.995Z,17.00
2022-08-29T07:29:13.535Z,17.10
2022-08-29T07:31:40.254Z,17.10
2022-08-29T07:34:07.680Z,17.30
2022-08-29T07:36:35.222Z,17.50
2022-08-29T07:39:07.537Z,17.80
2022-08-29T07:41:34.251Z,18.10
2022-08-29T07:44:00.850Z,18.20
2022-08-29T07:46:27.509Z,18.40
2022-08-29T07:48:54.220Z,18.50
2022-08-29T07:51:23.160Z,18.70
2022-08-29T07:53:50.949Z,18.90
2022-08-29T07:56:24.634Z,19.10
2022-08-29T07:58:52.129Z,19.20
2022-08-29T08:01:20.961Z,19.30
2022-08-29T08:03:48.833Z,19.40
2022-08-29T08:06:16.758Z,19.60
2022-08-29T08:08:43.550Z,19.60
2022-08-29T08:11:10.196Z,19.60
2022-08-29T08:13:37.852Z,19.70
2022-08-29T08:16:06.933Z,19.70
2022-08-29T08:18:35.527Z,19.90
2022-08-29T08:21:02.487Z,20.10
2022-08-29T08:23:29.242Z,20.30
2022-08-29T08:25:55.848Z,20.50
2022-08-29T08:28:22.469Z,20.60
2022-08-29T08:30:49.260Z,20.70
2022-08-29T08:33:16.166Z,20.60
2022-08-29T08:35:46.744Z,20.60
2022-08-29T08:38:14.019Z,20.80
2022-08-29T08:41:04.480Z,20.90
2022-08-29T08:44:04.471Z,21.00
2022-08-29T08:46:38.346Z,21.20
2022-08-29T08:49:12.255Z,21.30
2022-08-29T08:51:42.841Z,21.50
2022-08-29T08:54:21.966Z,21.60
2022-08-29T08:56:58.776Z,21.80
2022-08-29T08:59:35.637Z,22.00
2022-08-29T09:02:11.601Z,21.90
2022-08-29T09:05:08.352Z,22.10
2022-08-29T09:08:12.435Z,22.30
2022-08-29T09:11:02.449Z,22.50
2022-08-29T09:13:35.194Z,22.60
2022-08-29T09:16:10.045Z,22.80
2022-08-29T09:18:43.422Z,22.80
2022-08-29T09:21:40.064Z,22.90
2022-08-29T09:24:12.255Z,22.90
2022-08-29T09:26:38.962Z,22.70
2022-08-29T09:29:05.620Z,22.50
2022-08-29T09:31:34.391Z,22.40
2022-08-29T09:34:12.935Z,22.30
2022-08-29T09:36:52.677Z,22.10
2022-08-29T09:39:27.296Z,21.90
2022-08-29T09:41:57.490Z,21.80
2022-08-29T09:44:33.150Z,21.70
2022-08-29T09:47:19.233Z,21.80
2022-08-29T09:50:09.516Z,21.80
2022-08-29T09:52:39.978Z,21.80
2022-08-29T09:55:19.891Z,22.00
2022-08-29T09:57:53.276Z,22.30
2022-08-29T10:00:30.352Z,22.50
2022-08-29T10:03:00.602Z,22.50
2022-08-29T10:05:42.229Z,22.40
2022-08-29T10:08:36.891Z,22.30
2022-08-29T10:11:21.030Z,22.20
2022-08-29T10:13:55.744Z,22.20
2022-08-29T10:16:28.172Z,22.20
2022-08-29T10:27:32.621Z,22.50
2022-08-29T10:30:14.028Z,22.50
2022-08-29T10:33:08.303Z,22.40
2022-08-29T10:35:43.928Z,22.40
2022-08-29T10:38:19.352Z,22.60
2022-08-29T10:40:50.927Z,22.80
2022-08-29T10:43:36.355Z,23.00
2022-08-29T10:46:34.027Z,23.20
2022-08-29T10:49:16.199Z,23.00
2022-08-29T10:52:08.835Z,23.10
2022-08-29T10:54:54.060Z,23.00
2022-08-29T10:57:57.977Z,23.20
2022-08-29T11:00:37.650Z,23.60
2022-08-29T11:03:27.660Z,23.90
2022-08-29T11:06:01.528Z,24.10
2022-08-29T11:08:38.045Z,24.50
2022-08-29T11:11:04.749Z,24.60
2022-08-29T11:13:38.033Z,24.40
2022-08-29T11:16:36.576Z,24.30
2022-08-29T11:19:21.592Z,24.40
2022-08-29T11:22:13.837Z,24.50
2022-08-29T11:24:46.406Z,24.90
2022-08-29T11:27:29.502Z,25.30
2022-08-29T11:30:07.671Z,25.60
2022-08-29T11:32:49.036Z,25.60
2022-08-29T11:35:24.410Z,25.70
2022-08-29T11:38:09.726Z,26.00
2022-08-29T11:43:44.615Z,25.90
2022-08-29T11:46:13.095Z,25.90
2022-08-29T11:48:48.321Z,26.10
2022-08-29T11:51:37.262Z,26.10
2022-08-29T11:54:25.631Z,26.40
2022-08-29T11:57:01.509Z,26.50
2022-08-29T11:59:46.758Z,26.80
2022-08-29T12:02:28.396Z,26.80
2022-08-29T12:05:03.384Z,26.60
2022-08-29T12:07:51.067Z,26.60
2022-08-29T12:10:20.738Z,26.90
2022-08-29T12:12:52.418Z,27.00
2022-08-29T12:15:30.832Z,27.00
2022-08-29T12:18:07.930Z,26.60
2022-08-29T12:20:48.917Z,26.30
2022-08-29T12:23:20.739Z,25.70
2022-08-29T12:26:03.878Z,25.40
2022-08-29T12:28:41.804Z,25.30
2022-08-29T12:31:51.712Z,25.30
2022-08-29T12:34:43.298Z,25.70
2022-08-29T12:37:30.584Z,26.00
2022-08-29T12:40:27.035Z,26.10
2022-08-29T12:43:02.571Z,26.20
2022-08-29T12:45:29.396Z,26.40
2022-08-29T12:48:12.747Z,26.80
2022-08-29T12:50:45.582Z,27.10
2022-08-29T12:53:25.549Z,27.20
2022-08-29T12:55:57.687Z,27.00
2022-08-29T12:58:53.128Z,26.70
2022-08-29T13:01:33.070Z,26.30
2022-08-29T13:04:10.814Z,26.10
2022-08-29T13:06:49.970Z,26.00
2022-08-29T13:09:30.371Z,26.10
2022-08-29T13:12:09.199Z,26.40
2022-08-29T13:14:56.266Z,26.60
2022-08-29T13:17:35.711Z,26.70
2022-08-29T13:20:36.473Z,26.30
2022-08-29T13:23:12.134Z,26.30
2022-08-29T13:26:00.748Z,26.30
2022-08-29T13:28:39.122Z,26.30
2022-08-29T13:31:11.551Z,26.40
2022-08-29T13:33:58.142Z,26.50
2022-08-29T13:36:47.651Z,26.40
2022-08-29T13:39:18.396Z,26.40
2022-08-29T13:41:49.955Z,26.60
2022-08-29T13:44:27.354Z,26.60
2022-08-29T13:46:56.762Z,26.80
2022-08-29T13:49:35.198Z,26.70
2022-08-29T13:52:03.188Z,26.70
2022-08-29T13:54:31.201Z,26.60
2022-08-29T13:57:00.336Z,26.70
2022-08-29T13:59:35.968Z,26.60
2022-08-29T14:02:11.409Z,26.70
2022-08-29T14:04:40.822Z,26.70
2022-08-29T14:07:30.203Z,26.60
2022-08-29T14:09:56.979Z,26.60
2022-08-29T14:12:33.458Z,26.60
2022-08-29T14:15:06.587Z,26.60
2022-08-29T14:17:35.804Z,26.50
2022-08-29T14:20:02.699Z,26.20
2022-08-29T14:22:29.325Z,26.20
2022-08-29T14:24:55.943Z,26.20
2022-08-29T14:27:22.753Z,26.10
2022-08-29T14:29:49.603Z,25.90
2022-08-29T14:32:16.233Z,26.00
2022-08-29T14:34:44.781Z,26.00
2022-08-29T14:37:18.212Z,25.80
2022-08-29T14:39:44.810Z,25.90
2022-08-29T14:42:16.548Z,26.00
2022-08-29T14:44:43.163Z,26.00
2022-08-29T14:47:09.789Z,25.80
2022-08-29T14:49:36.471Z,25.90
2022-08-29T14:52:03.369Z,26.00
2022-08-29T14:54:29.999Z,26.00
2022-08-29T14:56:56.683Z,25.80
2022-08-29T14:59:23.641Z,25.70
2022-08-29T15:01:54.362Z,25.60
2022-08-29T15:04:35.645Z,25.60
2022-08-29T15:07:09.617Z,25.60
2022-08-29T15:09:36.841Z,25.50
2022-08-29T15:12:04.539Z,25.50
2022-08-29T15:14:31.223Z,25.70
2022-08-29T15:16:57.820Z,25.70
2022-08-29T15:19:58.121Z,25.60
2022-08-29T15:22:11.667Z,25.60
2022-08-29T15:24:38.805Z,25.60
2022-08-29T15:27:06.020Z,25.50
2022-08-29T15:29:33.075Z,25.40
2022-08-29T15:31:59.677Z,25.50
2022-08-29T15:34:28.500Z,25.60
2022-08-29T15:36:56.166Z,25.60
2022-08-29T15:39:23.493Z,25.50
2022-08-29T15:41:50.086Z,25.50
2022-08-29T15:44:17.063Z,25.50
2022-08-29T15:46:50.834Z,25.50
2022-08-29T15:49:18.758Z,25.50
2022-08-29T15:51:45.365Z,25.70
2022-08-29T15:54:12.171Z,25.80
2022-08-29T15:56:38.913Z,25.90
2022-08-29T15:59:07.421Z,26.00
2022-08-29T16:01:41.075Z,26.00
2022-08-29T16:04:08.895Z,26.10
2022-08-29T16:06:35.596Z,26.20
2022-08-29T16:09:02.814Z,26.20
2022-08-29T16:11:35.781Z,26.30
2022-08-29T16:14:34.934Z,26.20
2022-08-29T16:16:52.289Z,26.20
2022-08-29T16:19:19.288Z,26.30
2022-08-29T16:21:45.928Z,26.30
2022-08-29T16:24:13.251Z,26.20
2022-08-29T16:26:43.747Z,26.10
2022-08-29T16:29:12.175Z,26.00
2022-08-29T16:31:39.084Z,25.90
2022-08-29T16:34:05.725Z,26.00
2022-08-29T16:36:32.336Z,25.80
2022-08-29T16:38:58.918Z,25.70
2022-08-29T16:41:25.555Z,25.50
2022-08-29T16:43:52.257Z,25.40
2022-08-29T16:46:22.811Z,25.40
2022-08-29T16:48:49.899Z,25.40
2022-08-29T16:51:19.144Z,25.40
2022-08-29T16:53:46.584Z,25.10
2022-08-29T16:56:14.879Z,25.00
2022-08-29T16:58:43.257Z,24.80
2022-08-29T17:01:09.912Z,24.80
2022-08-29T17:03:36.525Z,24.70
2022-08-29T17:06:03.765Z,24.70
2022-08-29T17:08:30.447Z,24.60
2022-08-29T17:10:57.304Z,24.70
2022-08-29T17:13:24.410Z,24.60
2022-08-29T17:15:51.509Z,24.60
2022-08-29T17:18:18.426Z,24.60
2022-08-29T17:20:46.391Z,24.30
2022-08-29T17:23:13.278Z,24.20
2022-08-29T17:25:40.159Z,24.10
2022-08-29T17:28:17.654Z,24.00
2022-08-29T17:30:44.580Z,23.90
2022-08-29T17:33:11.194Z,23.80
2022-08-29T17:35:38.261Z,23.70
2022-08-29T17:38:04.861Z,23.60
2022-08-29T17:40:31.553Z,23.40
2022-08-29T17:42:59.945Z,23.30
2022-08-29T17:45:26.783Z,23.10
2022-08-29T17:47:53.569Z,22.90
2022-08-29T17:50:20.199Z,22.80
2022-08-29T17:52:46.827Z,22.70
2022-08-29T17:55:13.516Z,22.60
2022-08-29T17:57:40.323Z,22.50
2022-08-29T18:00:07.734Z,22.40
2022-08-29T18:02:34.422Z,22.40
2022-08-29T18:05:02.142Z,22.30
2022-08-29T18:07:28.827Z,22.20
2022-08-29T18:09:57.953Z,22.00
2022-08-29T18:12:24.927Z,21.90
2022-08-29T18:14:51.686Z,21.80
2022-08-29T18:17:18.456Z,21.70
2022-08-29T18:19:45.069Z,21.50
2022-08-29T18:22:11.661Z,21.50
2022-08-29T18:24:38.279Z,21.50
2022-08-29T18:27:04.985Z,21.50
2022-08-29T18:29:31.690Z,21.50
2022-08-29T18:31:58.304Z,21.40
2022-08-29T18:34:24.898Z,21.30
2022-08-29T18:36:51.548Z,21.30
2022-08-29T18:39:18.322Z,21.20
2022-08-29T18:41:45.066Z,21.10
2022-08-29T18:44:11.912Z,21.00
2022-08-29T18:46:38.710Z,20.90
2022-08-29T18:49:05.339Z,20.80
2022-08-29T18:51:33.639Z,20.60
2022-08-29T18:54:00.357Z,20.50
2022-08-29T18:56:27.070Z,20.40
2022-08-29T18:58:54.699Z,20.30
2022-08-29T19:01:28.497Z,20.20
2022-08-29T19:03:57.461Z,20.20
2022-08-29T19:06:24.227Z,20.20
2022-08-29T19:08:51.381Z,20.10
2022-08-29T19:11:18.398Z,20.10
2022-08-29T19:13:46.019Z,20.10
2022-08-29T19:16:12.799Z,20.10
2022-08-29T19:18:39.549Z,20.10
2022-08-29T19:21:06.631Z,20.00
2022-08-29T19:23:35.049Z,19.90
2022-08-29T19:26:03.789Z,19.80
2022-08-29T19:28:30.879Z,19.70
2022-08-29T19:30:58.630Z,19.60
2022-08-29T19:33:25.478Z,19.60
2022-08-29T19:35:52.144Z,19.50
2022-08-29T19:38:20.510Z,19.40
2022-08-29T19:40:47.459Z,19.30
2022-08-29T19:43:15.043Z,19.30
2022-08-29T19:45:42.952Z,19.20
2022-08-29T19:48:15.088Z,19.20
2022-08-29T19:50:47.472Z,19.10
2022-08-29T19:53:16.296Z,19.00
2022-08-29T19:55:51.353Z,19.00
2022-08-29T19:58:18.339Z,19.10
2022-08-29T20:00:45.150Z,19.10
2022-08-29T20:03:11.974Z,19.00
2022-08-29T20:05:38.628Z,19.00
2022-08-29T20:08:05.562Z,18.90
2022-08-29T20:10:32.186Z,18.90
2022-08-29T20:12:58.789Z,18.90
2022-08-29T20:15:30.607Z,18.90
2022-08-29T20:17:58.778Z,18.90
2022-08-29T20:20:31.015Z,18.80
2022-08-29T20:22:57.679Z,18.70
2022-08-29T20:25:24.395Z,18.50
2022-08-29T20:27:51.875Z,18.60
2022-08-29T20:30:23.067Z,18.60
2022-08-29T20:32:50.432Z,18.50
2022-08-29T20:35:17.778Z,18.50
2022-08-29T20:37:44.396Z,18.50
2022-08-29T20:40:11.469Z,18.50
2022-08-29T20:42:38.135Z,18.50
2022-08-29T20:45:05.150Z,18.40
2022-08-29T20:47:31.774Z,18.40
2022-08-29T20:49:58.354Z,18.40
2022-08-29T20:52:25.003Z,18.30
2022-08-29T20:54:51.600Z,18.30
2022-08-29T20:57:18.290Z,18.30
2022-08-29T20:59:45.035Z,18.20
2022-08-29T21:02:11.762Z,18.10
2022-08-29T21:04:38.398Z,18.00
2022-08-29T21:07:08.478Z,17.90
2022-08-29T21:09:36.735Z,17.90
2022-08-29T21:12:03.730Z,17.90
2022-08-29T21:14:30.319Z,18.00
2022-08-29T21:16:57.647Z,18.00
2022-08-29T21:19:26.286Z,18.00
2022-08-29T21:21:52.978Z,18.10
2022-08-29T21:24:19.884Z,18.10
2022-08-29T21:26:47.936Z,18.10
2022-08-29T21:29:14.884Z,18.00
2022-08-29T21:31:42.241Z,17.90
2022-08-29T21:34:11.694Z,17.80
2022-08-29T21:36:38.876Z,17.80
2022-08-29T21:39:07.907Z,17.60
2022-08-29T21:41:38.485Z,17.50
2022-08-29T21:44:05.612Z,17.50
2022-08-29T21:46:35.690Z,17.40
2022-08-29T21:49:05.019Z,17.40
2022-08-29T21:51:33.302Z,17.50
2022-08-29T21:54:00.524Z,17.40
2022-08-29T21:56:28.883Z,17.50
2022-08-29T21:58:55.580Z,17.40
2022-08-29T22:01:28.622Z,17.40
2022-08-29T22:03:56.375Z,17.40
2022-08-29T22:06:23.807Z,17.30
2022-08-29T22:08:55.065Z,17.40
2022-08-29T22:11:25.764Z,17.30
2022-08-29T22:14:04.604Z,17.30
2022-08-29T22:16:31.358Z,17.30
2022-08-29T22:19:13.439Z,17.20
2022-08-29T22:21:46.342Z,17.20
2022-08-29T22:24:15.286Z,17.20
2022-08-29T22:26:42.370Z,17.20
2022-08-29T22:29:11.995Z,17.20
2022-08-29T22:31:39.068Z,17.10
2022-08-29T22:34:09.099Z,17.10
2022-08-29T22:36:35.726Z,17.10
2022-08-29T22:39:02.399Z,17.00
2022-08-29T22:41:29.048Z,16.90
2022-08-29T22:44:25.428Z,16.80
2022-08-29T22:46:44.466Z,16.70
2022-08-29T22:49:11.349Z,16.70
2022-08-29T22:51:37.996Z,16.70
2022-08-29T22:54:04.792Z,16.60
2022-08-29T22:56:32.602Z,16.60
2022-08-29T22:58:59.749Z,16.50
2022-08-29T23:01:30.869Z,16.50
2022-08-29T23:03:58.707Z,16.40
2022-08-29T23:06:27.434Z,16.50
2022-08-29T23:08:55.123Z,16.40
2022-08-29T23:11:22.584Z,16.40
2022-08-29T23:13:49.180Z,16.30
2022-08-29T23:16:16.645Z,16.40
2022-08-29T23:18:43.331Z,16.40
2022-08-29T23:21:09.919Z,16.40
2022-08-29T23:23:38.776Z,16.40
2022-08-29T23:26:05.598Z,16.30
2022-08-29T23:28:34.233Z,16.20
2022-08-29T23:31:01.543Z,16.30
2022-08-29T23:33:28.771Z,16.30
2022-08-29T23:35:56.186Z,16.30
2022-08-29T23:38:23.097Z,16.30
2022-08-29T23:40:50.879Z,16.20
2022-08-29T23:43:21.184Z,16.00
2022-08-29T23:45:48.762Z,15.90
2022-08-29T23:48:15.462Z,15.90
2022-08-29T23:50:42.126Z,15.90
2022-08-29T23:53:12.233Z,15.90
2022-08-29T23:55:40.222Z,15.90
2022-08-29T23:58:07.622Z,15.90
